Time;durP1;ratioP1;P1;durP2;ratioP2;P2;SDS_P1;SDS_P2;PMS_P1;PMS_P2;Temp;Humidity;BMP_temperature;BMP_pressure;BME280_temperature;BME280_humidity;BME280_pressure;Samples;Min_cycle;Max_cycle;Signal;HPM_P1;HPM_P2
2024/01/30 00:01:58;;;;;;;2.63;1.55;;;;;;;15.78;100.00;100676.84;5107334;28;20276;-87
2024/01/30 00:04:27;;;;;;;1.80;1.23;;;;;;;15.77;100.00;100677.75;5111639;28;20143;-87
2024/01/30 00:07:02;;;;;;;4.72;1.25;;;;;;;15.77;100.00;100670.78;5105143;28;20051;-85
2024/01/30 00:09:32;;;;;;;1.95;1.20;;;;;;;15.77;100.00;100664.69;5110265;28;20043;-88
2024/01/30 00:12:01;;;;;;;2.78;1.58;;;;;;;15.76;100.00;100671.66;5108002;28;20055;-86
2024/01/30 00:17:14;;;;;;;3.47;1.63;;;;;;;15.69;100.00;100652.44;5112818;27;20105;-88
2024/01/30 00:19:46;;;;;;;2.08;1.27;;;;;;;15.66;100.00;100654.13;5122340;27;20846;-89
2024/01/30 00:22:24;;;;;;;1.95;1.50;;;;;;;15.61;100.00;100643.69;5116953;27;20070;-88
2024/01/30 00:24:55;;;;;;;2.30;1.38;;;;;;;15.58;100.00;100648.88;5115869;27;20109;-88
2024/01/30 00:27:24;;;;;;;5.00;1.50;;;;;;;15.52;100.00;100632.31;5115777;27;20376;-86
2024/01/30 00:30:06;;;;;;;2.92;1.85;;;;;;;15.50;100.00;100642.72;5116600;27;20054;-89
2024/01/30 00:32:35;;;;;;;5.55;2.22;;;;;;;15.45;100.00;100655.72;5122573;27;20115;-86
2024/01/30 00:35:04;;;;;;;5.43;2.60;;;;;;;15.39;100.00;100646.97;5115526;27;20056;-89
2024/01/30 00:37:40;;;;;;;3.65;2.63;;;;;;;15.32;100.00;100647.78;5116161;27;20227;-87
2024/01/30 00:40:15;;;;;;;5.03;2.60;;;;;;;15.28;100.00;100645.16;5112118;27;20134;-88
2024/01/30 00:42:44;;;;;;;3.45;2.33;;;;;;;15.23;100.00;100636.44;5117824;27;20055;-87
2024/01/30 00:45:25;;;;;;;2.13;1.60;;;;;;;15.20;100.00;100636.41;5114305;27;20121;-87
2024/01/30 00:47:54;;;;;;;2.83;1.52;;;;;;;15.23;100.00;100653.78;5115814;27;20147;-86
2024/01/30 00:53:07;;;;;;;7.63;1.80;;;;;;;15.17;100.00;100640.72;5113608;27;20057;-86
2024/01/30 00:55:38;;;;;;;2.80;1.60;;;;;;;15.15;100.00;100645.06;5113123;27;20139;-89
2024/01/30 00:58:07;;;;;;;5.72;1.70;;;;;;;15.09;100.00;100661.50;5114922;27;20122;-89
2024/01/30 01:00:39;;;;;;;5.03;2.10;;;;;;;14.99;100.00;100677.91;5111484;27;20048;-89
2024/01/30 01:03:09;;;;;;;5.07;1.95;;;;;;;14.93;100.00;100694.34;5091080;28;20047;-88
2024/01/30 01:05:38;;;;;;;6.32;2.20;;;;;;;14.82;100.00;100691.63;5116258;27;20092;-88
2024/01/30 01:08:07;;;;;;;3.33;2.10;;;;;;;14.79;100.00;100698.53;5113315;27;20048;-87
2024/01/30 01:10:48;;;;;;;3.63;1.75;;;;;;;14.77;100.00;100706.31;5115651;27;20299;-88
2024/01/30 01:13:17;;;;;;;2.40;1.60;;;;;;;14.72;100.00;100705.38;5103039;28;20056;-87
2024/01/30 01:15:46;;;;;;;3.08;1.65;;;;;;;14.73;100.00;100711.47;5114252;27;20146;-88
2024/01/30 01:18:15;;;;;;;3.22;1.85;;;;;;;14.72;100.00;100718.41;5110758;27;20109;-88
2024/01/30 01:20:47;;;;;;;2.67;1.80;;;;;;;14.65;100.00;100722.66;5098233;27;20043;-88
2024/01/30 01:23:15;;;;;;;4.68;1.75;;;;;;;14.65;100.00;100719.19;5112620;27;20051;-88
2024/01/30 01:25:46;;;;;;;2.70;1.52;;;;;;;14.62;100.00;100742.59;5117194;27;20027;-87
2024/01/30 01:28:18;;;;;;;2.30;1.35;;;;;;;14.60;100.00;100752.13;5112239;28;20091;-87
2024/01/30 01:30:58;;;;;;;3.03;1.42;;;;;;;14.55;100.00;100744.25;5115476;27;20057;-87
2024/01/30 01:33:27;;;;;;;2.85;1.30;;;;;;;14.51;100.00;100738.94;5111120;27;20051;-87
2024/01/30 01:35:56;;;;;;;2.10;1.20;;;;;;;14.52;100.00;100744.16;5110366;28;20048;-87
2024/01/30 01:38:34;;;;;;;2.25;1.20;;;;;;;14.46;100.00;100747.56;5115443;27;20079;-87
2024/01/30 01:41:04;;;;;;;2.30;1.55;;;;;;;14.49;100.00;100761.50;5115457;27;20044;-86
2024/01/30 01:43:33;;;;;;;2.67;1.38;;;;;;;14.44;100.00;100774.44;5115096;27;20363;-87
2024/01/30 01:46:13;;;;;;;2.70;1.20;;;;;;;14.41;100.00;100782.22;5125755;27;20062;-85
2024/01/30 01:48:44;;;;;;;3.65;1.52;;;;;;;14.42;100.00;100794.38;5122406;27;20089;-84
2024/01/30 01:51:13;;;;;;;1.60;1.15;;;;;;;14.40;100.00;100786.53;5118010;27;20058;-85
2024/01/30 01:53:42;;;;;;;2.35;1.50;;;;;;;14.39;100.00;100778.72;5114568;27;20051;-84
2024/01/30 01:56:25;;;;;;;2.03;1.30;;;;;;;14.32;100.00;100790.75;5122245;27;20052;-84
2024/01/30 01:58:57;;;;;;;2.22;1.20;;;;;;;14.30;100.00;100795.06;5119667;27;20047;-84
2024/01/30 02:01:37;;;;;;;4.33;1.17;;;;;;;14.30;100.00;100792.47;5118159;27;20043;-83
2024/01/30 02:04:06;;;;;;;1.65;1.23;;;;;;;14.32;100.00;100784.69;5115491;27;20292;-85
2024/01/30 02:06:36;;;;;;;1.50;1.30;;;;;;;14.29;100.00;100788.09;5124088;27;20549;-84
2024/01/30 02:09:09;;;;;;;2.50;1.17;;;;;;;14.30;100.00;100789.88;5122703;27;20047;-87
2024/01/30 02:11:40;;;;;;;2.53;1.25;;;;;;;14.26;100.00;100793.25;5119640;27;20051;-87
2024/01/30 02:14:11;;;;;;;4.28;1.30;;;;;;;14.22;100.00;100796.66;5107475;27;20047;-86
2024/01/30 02:16:39;;;;;;;1.92;1.48;;;;;;;14.23;100.00;100801.03;5113763;27;20107;-86
2024/01/30 02:19:11;;;;;;;2.65;1.33;;;;;;;14.23;100.00;100806.25;5118914;27;20046;-85
2024/01/30 02:21:44;;;;;;;4.03;1.83;;;;;;;14.21;100.00;100808.81;5125232;27;20159;-84
2024/01/30 02:24:13;;;;;;;2.40;1.33;;;;;;;14.19;100.00;100801.84;5117282;27;20047;-85
2024/01/30 02:26:41;;;;;;;2.38;1.23;;;;;;;14.19;100.00;100807.03;5124835;27;20145;-82
2024/01/30 02:29:21;;;;;;;2.45;1.58;;;;;;;14.21;100.00;100810.53;5118404;27;20084;-82
2024/01/30 02:31:50;;;;;;;1.50;1.10;;;;;;;14.14;100.00;100799.16;5118966;27;20062;-81
2024/01/30 02:34:19;;;;;;;3.25;1.95;;;;;;;14.16;100.00;100804.41;5110584;27;20051;-84
2024/01/30 02:36:58;;;;;;;2.75;1.58;;;;;;;14.17;100.00;100819.16;5106219;28;20054;-81
2024/01/30 02:39:27;;;;;;;5.43;1.48;;;;;;;14.13;100.00;100833.84;5117813;27;20060;-82
2024/01/30 02:41:57;;;;;;;3.60;1.90;;;;;;;14.08;100.00;100843.28;5120444;27;20040;-82
2024/01/30 02:44:25;;;;;;;2.83;1.60;;;;;;;14.07;100.00;100830.28;5117123;27;20130;-82
2024/01/30 02:47:02;;;;;;;2.08;1.30;;;;;;;14.04;100.00;100825.88;5122008;27;20118;-84
2024/01/30 02:49:30;;;;;;;2.53;1.85;;;;;;;13.91;100.00;100830.00;5126102;27;20055;-85
2024/01/30 02:52:01;;;;;;;2.90;1.65;;;;;;;13.86;100.00;100825.56;5125484;27;20055;-83
2024/01/30 02:54:30;;;;;;;2.17;1.40;;;;;;;13.85;100.00;100832.50;5121611;27;20051;-83
2024/01/30 02:57:02;;;;;;;2.45;1.50;;;;;;;13.83;100.00;100826.38;5123506;27;20043;-83
2024/01/30 02:59:33;;;;;;;3.33;1.45;;;;;;;13.78;100.00;100826.31;5120907;27;20135;-84
2024/01/30 03:02:01;;;;;;;2.35;1.60;;;;;;;13.70;100.00;100825.31;5123587;27;20055;-82
2024/01/30 03:04:30;;;;;;;3.47;1.75;;;;;;;13.68;100.00;100828.75;5129768;27;20130;-85
2024/01/30 03:07:03;;;;;;;3.58;1.85;;;;;;;13.71;100.00;100821.84;5134943;27;20027;-83
2024/01/30 03:09:34;;;;;;;3.55;1.52;;;;;;;13.67;100.00;100829.56;5132479;27;20040;-83
2024/01/30 03:12:03;;;;;;;4.60;1.63;;;;;;;13.59;100.00;100830.31;5134554;27;20054;-81
2024/01/30 03:14:34;;;;;;;3.47;1.77;;;;;;;13.55;100.00;100825.91;5128175;28;20035;-82
2024/01/30 03:17:10;;;;;;;2.47;1.40;;;;;;;13.51;100.00;100842.28;5114173;28;20043;-83
2024/01/30 03:19:39;;;;;;;1.75;1.20;;;;;;;13.52;100.00;100861.38;5140787;27;20084;-84
2024/01/30 03:22:10;;;;;;;4.65;1.48;;;;;;;13.52;100.00;100863.97;5133395;28;20043;-85
2024/01/30 03:24:42;;;;;;;2.15;1.45;;;;;;;13.56;100.00;100865.75;5135810;27;20134;-84
2024/01/30 03:27:11;;;;;;;5.20;1.35;;;;;;;13.55;100.00;100877.88;5128068;27;20119;-82
2024/01/30 03:29:40;;;;;;;3.05;1.55;;;;;;;13.53;100.00;100889.09;5114398;27;20139;-83
2024/01/30 03:32:08;;;;;;;3.55;1.90;;;;;;;13.46;100.00;100890.72;5122990;27;20052;-84
2024/01/30 03:34:37;;;;;;;7.15;3.20;;;;;;;13.45;100.00;100904.56;5119296;27;20082;-84
2024/01/30 03:37:11;;;;;;;5.85;2.85;;;;;;;13.47;100.00;100909.78;5123144;27;20047;-84
2024/01/30 03:39:42;;;;;;;4.35;2.22;;;;;;;13.48;100.00;100920.22;5124472;27;20048;-84
2024/01/30 03:42:11;;;;;;;6.60;2.40;;;;;;;13.47;100.00;100921.06;5118619;27;20512;-84
2024/01/30 03:44:40;;;;;;;4.72;2.08;;;;;;;13.47;100.00;100926.28;5123243;27;20604;-84
2024/01/30 03:47:13;;;;;;;2.53;1.95;;;;;;;13.48;100.00;100924.53;5117167;28;20047;-83
2024/01/30 03:49:42;;;;;;;3.53;2.10;;;;;;;13.50;100.00;100912.47;5117688;27;20051;-84
2024/01/30 03:52:11;;;;;;;3.80;1.95;;;;;;;13.56;100.00;100925.56;5110125;27;20040;-82
2024/01/30 03:54:42;;;;;;;3.97;2.00;;;;;;;13.59;100.00;100926.50;5124585;28;20052;-82
2024/01/30 03:57:15;;;;;;;2.80;1.85;;;;;;;13.62;100.00;100925.69;5114946;28;20051;-83
2024/01/30 03:59:44;;;;;;;3.28;2.42;;;;;;;13.66;100.00;100929.25;5122608;28;20056;-84
2024/01/30 04:02:13;;;;;;;3.25;2.05;;;;;;;13.66;100.00;100937.03;5121291;28;20069;-84
2024/01/30 04:04:42;;;;;;;7.40;2.50;;;;;;;13.59;100.00;100946.44;5112651;28;20072;-83
2024/01/30 04:07:15;;;;;;;3.65;2.20;;;;;;;13.55;100.00;100953.28;5113660;28;20051;-84
2024/01/30 04:09:46;;;;;;;6.75;3.10;;;;;;;13.53;100.00;100969.69;5116412;28;20043;-83
2024/01/30 04:12:14;;;;;;;7.05;2.50;;;;;;;13.54;100.00;100964.53;5114436;28;20066;-83
2024/01/30 04:14:43;;;;;;;4.03;2.63;;;;;;;13.57;100.00;100954.19;5103505;28;20044;-83
2024/01/30 04:17:24;;;;;;;4.10;2.30;;;;;;;13.60;100.00;100959.44;5110460;28;20138;-83
2024/01/30 04:19:53;;;;;;;4.38;2.20;;;;;;;13.63;100.00;100961.25;5110026;28;20047;-84
2024/01/30 04:22:21;;;;;;;3.22;1.90;;;;;;;13.62;100.00;100962.09;5114443;28;20054;-84
2024/01/30 04:25:04;;;;;;;6.63;2.17;;;;;;;13.54;100.00;100961.94;5113531;28;20489;-83
2024/01/30 04:27:33;;;;;;;5.05;2.80;;;;;;;13.55;100.00;100957.63;5112757;28;20055;-82
2024/01/30 04:30:01;;;;;;;3.80;2.72;;;;;;;13.57;100.00;100980.19;5112026;28;20149;-83
2024/01/30 04:32:30;;;;;;;5.57;2.60;;;;;;;13.54;100.00;100966.28;5111140;28;20044;-83
2024/01/30 04:35:04;;;;;;;3.03;2.38;;;;;;;13.56;100.00;100977.56;5111616;28;20036;-83
2024/01/30 04:37:33;;;;;;;6.05;2.40;;;;;;;13.52;100.00;100992.22;5113798;28;20079;-83
2024/01/30 04:40:05;;;;;;;3.75;2.10;;;;;;;13.50;100.00;100980.91;5112694;28;20044;-83
2024/01/30 04:42:44;;;;;;;4.75;2.58;;;;;;;13.52;100.00;100999.16;5108467;28;20050;-83
2024/01/30 04:45:13;;;;;;;4.15;2.10;;;;;;;13.50;100.00;101006.91;5114220;28;20063;-84
2024/01/30 04:47:46;;;;;;;2.97;1.75;;;;;;;13.47;100.00;101001.66;5113660;28;20085;-84
2024/01/30 04:50:23;;;;;;;3.97;1.95;;;;;;;13.49;100.00;101009.47;5112722;28;20127;-83
2024/01/30 04:52:52;;;;;;;5.13;2.30;;;;;;;13.45;100.00;100977.34;5113612;28;20047;-84
2024/01/30 04:55:22;;;;;;;4.70;2.05;;;;;;;13.38;100.00;100983.25;5109512;28;20054;-83
2024/01/30 04:57:51;;;;;;;5.30;2.50;;;;;;;13.27;100.00;100992.50;5113279;28;20039;-85
2024/01/30 05:00:26;;;;;;;5.82;2.25;;;;;;;13.21;100.00;100998.44;5111465;28;20093;-86
2024/01/30 05:02:56;;;;;;;5.97;2.22;;;;;;;13.21;100.00;101001.03;5117248;27;20044;-85
2024/01/30 05:05:25;;;;;;;3.72;2.28;;;;;;;13.15;100.00;100993.13;5113324;28;20047;-85
2024/01/30 05:07:54;;;;;;;3.97;2.05;;;;;;;13.11;100.00;100992.16;5115619;27;20061;-85
2024/01/30 05:10:30;;;;;;;4.43;1.83;;;;;;;13.10;100.00;100985.22;5112545;27;20512;-84
2024/01/30 05:12:59;;;;;;;4.65;2.15;;;;;;;13.09;100.00;100993.84;5107838;27;20340;-87
2024/01/30 05:15:28;;;;;;;4.65;2.20;;;;;;;13.06;100.00;101003.31;5113223;28;20081;-87
2024/01/30 05:17:57;;;;;;;3.85;2.13;;;;;;;12.95;100.00;101005.63;5115046;28;20070;-87
2024/01/30 05:20:36;;;;;;;4.78;2.47;;;;;;;12.94;100.00;101003.84;5122082;27;20138;-85
2024/01/30 05:23:04;;;;;;;4.60;2.90;;;;;;;12.87;100.00;101018.41;5121927;27;20071;-87
2024/01/30 05:25:35;;;;;;;8.18;2.75;;;;;;;12.81;100.00;101017.41;5116591;27;20056;-87
2024/01/30 05:28:15;;;;;;;4.45;2.65;;;;;;;12.83;100.00;101026.09;5113996;27;20127;-85
2024/01/30 05:30:43;;;;;;;5.53;2.88;;;;;;;12.83;100.00;101026.09;5115297;27;20059;-86
2024/01/30 05:33:13;;;;;;;5.45;2.72;;;;;;;12.85;100.00;101027.00;5114130;27;20048;-87
2024/01/30 05:35:48;;;;;;;3.67;2.10;;;;;;;12.78;100.00;101013.00;5112474;27;20054;-87
2024/01/30 05:38:18;;;;;;;7.18;2.75;;;;;;;12.80;100.00;101016.50;5115494;27;20074;-87
2024/01/30 05:40:49;;;;;;;4.85;2.40;;;;;;;12.78;100.00;101016.50;5114248;27;20079;-88
2024/01/30 05:43:19;;;;;;;4.22;2.10;;;;;;;12.81;100.00;101022.59;5126871;27;20048;-90
2024/01/30 05:45:55;;;;;;;5.57;2.30;;;;;;;12.76;100.00;101020.78;5123799;27;20100;-85
2024/01/30 05:48:24;;;;;;;4.10;2.17;;;;;;;12.78;100.00;101019.09;5123516;27;20035;-86
2024/01/30 05:50:52;;;;;;;5.50;2.15;;;;;;;12.81;100.00;101022.59;5121607;27;20119;-88
2024/01/30 05:53:21;;;;;;;4.30;2.05;;;;;;;12.75;100.00;101013.81;5121795;27;20071;-88
2024/01/30 05:55:57;;;;;;;4.97;2.05;;;;;;;12.76;100.00;101015.56;5123760;27;20055;-88
2024/01/30 05:58:26;;;;;;;5.65;2.33;;;;;;;12.81;100.00;101010.50;5116833;27;20464;-87
2024/01/30 06:00:54;;;;;;;2.90;2.22;;;;;;;12.83;100.00;101010.50;5119784;27;20055;-87
2024/01/30 06:03:23;;;;;;;2.83;1.75;;;;;;;12.82;100.00;101009.63;5118778;27;20051;-87
2024/01/30 06:06:02;;;;;;;3.50;2.45;;;;;;;12.76;100.00;101015.56;5121415;27;20039;-87
2024/01/30 06:08:31;;;;;;;5.20;2.03;;;;;;;12.73;100.00;101025.88;5114770;27;20047;-87
2024/01/30 06:11:02;;;;;;;4.80;2.42;;;;;;;12.75;100.00;101024.19;5120701;27;20466;-86
2024/01/30 06:13:38;;;;;;;8.05;2.80;;;;;;;12.74;100.00;101032.84;5109656;27;20138;-88
2024/01/30 06:16:12;;;;;;;3.60;2.17;;;;;;;12.76;100.00;101031.16;5112392;28;20200;-87
2024/01/30 06:18:40;;;;;;;5.32;2.65;;;;;;;12.73;100.00;101035.38;5116214;27;20082;-86
2024/01/30 06:21:19;;;;;;;6.18;3.08;;;;;;;12.75;100.00;101034.56;5114776;27;20105;-87
2024/01/30 06:23:48;;;;;;;6.93;2.50;;;;;;;12.75;100.00;101036.31;5119901;27;20043;-86
2024/01/30 06:26:19;;;;;;;5.45;1.95;;;;;;;12.76;100.00;101030.28;5114990;27;20056;-85
2024/01/30 06:28:47;;;;;;;2.28;1.33;;;;;;;12.78;100.00;101028.56;5117617;27;20093;-87
2024/01/30 06:31:21;;;;;;;4.47;1.70;;;;;;;12.81;100.00;101023.47;5115522;28;20047;-86
2024/01/30 06:33:50;;;;;;;3.25;1.38;;;;;;;12.79;100.00;101017.38;5119993;27;20065;-86
2024/01/30 06:36:19;;;;;;;3.53;2.17;;;;;;;12.82;100.00;101024.34;5117995;27;20048;-86
2024/01/30 06:38:48;;;;;;;5.38;2.58;;;;;;;12.83;100.00;101028.69;5120602;27;20150;-87
2024/01/30 06:41:30;;;;;;;6.25;2.60;;;;;;;12.83;100.00;101018.31;5117667;27;20044;-85
2024/01/30 06:43:58;;;;;;;3.72;1.98;;;;;;;12.84;100.00;101025.28;5115121;28;20034;-85
2024/01/30 06:46:27;;;;;;;3.35;2.15;;;;;;;12.86;100.00;101027.06;5118847;27;20107;-84
2024/01/30 06:49:01;;;;;;;5.72;2.40;;;;;;;12.83;100.00;101010.50;5118426;27;20039;-85
2024/01/30 06:51:29;;;;;;;3.72;2.35;;;;;;;12.79;100.00;101018.25;5117285;27;20139;-86
2024/01/30 06:53:58;;;;;;;5.47;2.72;;;;;;;12.75;100.00;101018.13;5121756;27;20126;-86
2024/01/30 06:56:28;;;;;;;6.93;2.05;;;;;;;12.71;100.00;101018.88;5121541;27;20157;-86
2024/01/30 06:59:06;;;;;;;6.18;2.25;;;;;;;12.64;100.00;101030.81;5125990;27;20127;-86
2024/01/30 07:01:35;;;;;;;3.90;2.28;;;;;;;12.66;100.00;101018.78;5119973;27;20036;-85
2024/01/30 07:04:04;;;;;;;4.47;2.03;;;;;;;12.66;100.00;101008.38;5112582;27;20047;-85
2024/01/30 07:06:33;;;;;;;4.22;1.50;;;;;;;12.66;100.00;101018.78;5125000;27;20078;-85
2024/01/30 07:09:10;;;;;;;2.65;1.67;;;;;;;12.63;100.00;100999.66;5112903;27;20098;-85
2024/01/30 07:11:40;;;;;;;3.20;1.52;;;;;;;12.59;100.00;101019.47;5117679;27;20501;-86
2024/01/30 07:14:10;;;;;;;1.75;1.30;;;;;;;12.55;100.00;101017.63;5101885;28;20059;-85
2024/01/30 07:16:39;;;;;;;2.35;1.65;;;;;;;12.54;100.00;101023.66;5112097;28;20140;-85
2024/01/30 07:19:10;;;;;;;2.63;1.63;;;;;;;12.48;100.00;101028.69;5115854;27;20051;-85
2024/01/30 07:21:41;;;;;;;3.20;1.70;;;;;;;12.47;100.00;101042.50;5115322;27;20055;-85
2024/01/30 07:24:10;;;;;;;2.45;1.35;;;;;;;12.51;100.00;101033.97;5121028;28;20146;-84
2024/01/30 07:26:53;;;;;;;2.90;1.67;;;;;;;12.54;100.00;101026.25;5124420;27;20075;-84
2024/01/30 07:29:22;;;;;;;3.25;1.60;;;;;;;12.51;100.00;101014.09;5117252;27;20096;-85
2024/01/30 07:31:52;;;;;;;3.35;1.92;;;;;;;12.50;100.00;101022.69;5117113;27;20068;-85
2024/01/30 07:34:21;;;;;;;2.83;1.60;;;;;;;12.49;100.00;101020.06;5115732;27;20048;-85
2024/01/30 07:36:52;;;;;;;2.85;1.60;;;;;;;12.45;100.00;101007.84;5120343;27;20039;-85
2024/01/30 07:39:21;;;;;;;4.05;1.60;;;;;;;12.43;100.00;101005.22;5122704;27;20055;-84
2024/01/30 07:41:51;;;;;;;5.15;1.52;;;;;;;12.46;100.00;100999.22;5121438;27;20054;-85
2024/01/30 07:44:20;;;;;;;3.28;1.50;;;;;;;12.48;100.00;101013.09;5120730;27;20054;-85
2024/01/30 07:46:51;;;;;;;2.35;1.42;;;;;;;12.48;100.00;100997.53;5118234;28;20059;-85
2024/01/30 07:49:20;;;;;;;1.98;1.40;;;;;;;12.50;100.00;100996.72;5115731;28;20047;-86
2024/01/30 07:51:48;;;;;;;5.05;1.60;;;;;;;12.52;100.00;101007.16;5120868;28;20069;-84
2024/01/30 07:54:17;;;;;;;2.33;1.38;;;;;;;12.51;100.00;100998.50;5118054;27;20048;-85
2024/01/30 07:56:46;;;;;;;3.63;1.35;;;;;;;12.54;100.00;100982.13;5117898;28;20134;-84
2024/01/30 07:59:28;;;;;;;7.43;1.58;;;;;;;12.57;100.00;100984.78;5119620;28;20054;-84
2024/01/30 08:01:57;;;;;;;4.40;1.52;;;;;;;12.54;100.00;100982.13;5123097;28;20058;-84
2024/01/30 08:04:25;;;;;;;3.67;2.03;;;;;;;12.55;100.00;100976.09;5110509;28;20054;-86
2024/01/30 08:06:59;;;;;;;2.72;1.55;;;;;;;12.58;100.00;100978.78;5119384;28;20058;-84
2024/01/30 08:09:28;;;;;;;3.70;2.15;;;;;;;12.59;100.00;100985.72;5109526;28;20623;-84
2024/01/30 08:11:57;;;;;;;2.28;1.63;;;;;;;12.54;100.00;100984.72;5111508;28;20035;-87
2024/01/30 08:14:28;;;;;;;3.50;1.67;;;;;;;12.54;100.00;100983.00;5104821;28;20059;-84
2024/01/30 08:17:07;;;;;;;3.40;1.90;;;;;;;12.52;100.00;100976.03;5111137;28;20092;-86
2024/01/30 08:19:36;;;;;;;3.67;1.75;;;;;;;12.49;100.00;100968.16;5110738;28;20060;-85
2024/01/30 08:22:05;;;;;;;4.72;1.67;;;;;;;12.48;100.00;100964.66;5115535;28;20155;-85
2024/01/30 08:24:41;;;;;;;6.35;1.83;;;;;;;12.49;100.00;100971.63;5121325;28;20085;-85
2024/01/30 08:27:13;;;;;;;6.10;1.70;;;;;;;12.42;100.00;100972.31;5120838;28;20082;-85
2024/01/30 08:29:43;;;;;;;2.95;1.40;;;;;;;12.38;100.00;100980.00;5119602;28;20044;-86
2024/01/30 08:32:12;;;;;;;2.53;1.60;;;;;;;12.28;100.00;100978.88;5118165;28;20093;-86
2024/01/30 08:34:47;;;;;;;6.38;1.88;;;;;;;12.24;100.00;100972.72;5124993;27;20443;-87
2024/01/30 08:37:16;;;;;;;6.32;1.83;;;;;;;12.23;100.00;100975.25;5125753;27;20044;-85
2024/01/30 08:39:45;;;;;;;2.90;1.75;;;;;;;12.25;100.00;100979.66;5129004;27;20055;-87
2024/01/30 08:42:18;;;;;;;2.80;1.60;;;;;;;12.27;100.00;100977.97;5126502;27;20134;-87
2024/01/30 08:44:53;;;;;;;4.00;1.48;;;;;;;12.28;100.00;100969.38;5131802;27;20134;-85
2024/01/30 08:47:21;;;;;;;4.40;1.80;;;;;;;12.27;100.00;100972.78;5141083;27;20054;-84
2024/01/30 08:49:50;;;;;;;4.20;1.60;;;;;;;12.24;100.00;100972.72;5141818;27;20081;-84
2024/01/30 08:52:27;;;;;;;6.05;1.73;;;;;;;12.21;100.00;100964.88;5139287;27;20055;-84
2024/01/30 08:54:56;;;;;;;6.38;2.42;;;;;;;12.20;100.00;100957.91;5137542;27;20042;-85
2024/01/30 08:57:28;;;;;;;4.05;2.35;;;;;;;12.17;100.00;100954.38;5143790;27;20035;-84
2024/01/30 09:00:04;;;;;;;3.85;2.25;;;;;;;12.17;100.00;100946.59;5145327;27;20070;-84
2024/01/30 09:02:33;;;;;;;3.63;1.90;;;;;;;12.21;100.00;100956.19;5142257;27;20032;-84
2024/01/30 09:05:01;;;;;;;6.88;2.38;;;;;;;12.20;100.00;100957.03;5134117;27;20105;-84
2024/01/30 09:07:30;;;;;;;4.35;2.28;;;;;;;12.14;100.00;100950.00;5141818;27;20075;-85
2024/01/30 09:09:59;;;;;;;5.72;1.73;;;;;;;12.13;100.00;100949.09;5128632;27;20138;-85
2024/01/30 09:12:30;;;;;;;3.13;2.22;;;;;;;12.15;100.00;100941.34;5111447;27;20047;-84
2024/01/30 09:15:01;;;;;;;5.25;2.58;;;;;;;12.12;100.00;100946.47;5113630;27;20047;-84
2024/01/30 09:17:29;;;;;;;6.97;2.75;;;;;;;12.17;100.00;100946.59;5114367;28;20059;-84
2024/01/30 09:19:58;;;;;;;7.72;2.80;;;;;;;12.17;100.00;100926.72;5120067;27;20044;-85
2024/01/30 09:22:38;;;;;;;6.35;2.00;;;;;;;12.15;100.00;100938.75;5114424;27;20090;-85
2024/01/30 09:25:08;;;;;;;5.05;1.80;;;;;;;12.15;100.00;100936.16;5123537;27;20059;-84
2024/01/30 09:27:37;;;;;;;6.65;2.63;;;;;;;12.19;100.00;100926.75;5125108;27;20058;-85
2024/01/30 09:30:21;;;;;;;4.43;1.80;;;;;;;12.18;100.00;100938.81;5120297;27;20061;-85
2024/01/30 09:32:49;;;;;;;3.75;2.42;;;;;;;12.12;100.00;100936.97;5125496;27;20062;-85
2024/01/30 09:35:18;;;;;;;7.25;3.00;;;;;;;12.12;100.00;100931.78;5123593;27;20061;-84
2024/01/30 09:41:05;;;;;;;5.78;2.88;;;;;;;12.05;100.00;100941.94;5116192;27;20404;-85
2024/01/30 09:43:36;;;;;;;5.25;2.78;;;;;;;12.01;100.00;100942.72;5123107;28;20051;-85
2024/01/30 09:46:13;;;;;;;6.53;2.45;;;;;;;11.98;100.00;100947.78;5120732;28;20054;-85
2024/01/30 09:48:43;;;;;;;6.28;2.42;;;;;;;11.97;100.00;100948.66;5124866;27;20055;-83
2024/01/30 09:51:13;;;;;;;6.18;2.83;;;;;;;11.97;100.00;100951.25;5122453;28;20468;-85
2024/01/30 09:53:47;;;;;;;4.97;2.72;;;;;;;11.97;100.00;100949.53;5113418;28;20040;-84
2024/01/30 09:56:19;;;;;;;4.68;2.20;;;;;;;11.98;100.00;100948.69;5126182;28;20046;-83
2024/01/30 09:58:48;;;;;;;4.05;2.22;;;;;;;11.95;100.00;100941.69;5116522;28;20047;-84
2024/01/30 10:01:19;;;;;;;5.72;1.90;;;;;;;11.97;100.00;100946.06;5119167;28;20075;-84
2024/01/30 10:03:55;;;;;;;3.55;2.17;;;;;;;11.94;100.00;100941.66;5109600;28;20050;-84
2024/01/30 10:06:26;;;;;;;6.43;2.63;;;;;;;11.98;100.00;100940.91;5118704;28;20058;-84
2024/01/30 10:08:55;;;;;;;4.47;2.30;;;;;;;11.98;100.00;100940.91;5122000;27;20052;-84
2024/01/30 10:11:39;;;;;;;5.82;2.78;;;;;;;11.94;100.00;100931.28;5122112;28;20138;-84
2024/01/30 10:14:08;;;;;;;4.97;2.55;;;;;;;11.95;100.00;100949.47;5109786;28;20062;-84
2024/01/30 10:16:37;;;;;;;4.75;2.55;;;;;;;11.93;100.00;100945.09;5115781;28;20055;-84
2024/01/30 10:19:19;;;;;;;4.80;2.28;;;;;;;11.91;100.00;100947.66;5114505;28;20043;-85
2024/01/30 10:21:48;;;;;;;5.13;2.65;;;;;;;11.97;100.00;100940.88;5120365;27;20048;-84
2024/01/30 10:24:17;;;;;;;4.85;2.92;;;;;;;12.01;100.00;100933.22;5115639;28;20099;-84
2024/01/30 10:26:54;;;;;;;4.93;2.55;;;;;;;12.02;100.00;100931.50;5114222;28;20048;-84
2024/01/30 10:29:23;;;;;;;7.47;2.90;;;;;;;12.02;100.00;100928.91;5109573;28;20067;-84
2024/01/30 10:32:02;;;;;;;5.40;2.85;;;;;;;12.04;100.00;100928.09;5111778;28;20093;-84
2024/01/30 10:34:39;;;;;;;6.15;2.60;;;;;;;12.04;100.00;100932.41;5114660;28;20063;-84
2024/01/30 10:37:12;;;;;;;3.60;1.88;;;;;;;12.07;100.00;100938.56;5112504;28;20509;-84
2024/01/30 10:39:41;;;;;;;4.28;2.83;;;;;;;12.08;100.00;100935.13;5113265;28;20111;-84
2024/01/30 10:42:21;;;;;;;5.85;2.30;;;;;;;12.07;100.00;100922.09;5113994;27;20062;-84
2024/01/30 10:45:12;;;;;;;;;;;;;;;;;;;;;
2024/01/30 10:47:42;;;;;;;4.97;2.42;;;;;;;12.11;100.00;100924.81;5114378;28;20508;-84
2024/01/30 10:50:12;;;;;;;3.70;2.40;;;;;;;12.12;100.00;100921.41;5110630;28;20045;-85
2024/01/30 10:52:42;;;;;;;8.50;2.75;;;;;;;12.08;100.00;100911.78;5097178;28;20139;-84
2024/01/30 10:55:17;;;;;;;8.23;2.75;;;;;;;12.02;100.00;100914.22;5098640;28;20075;-85
2024/01/30 10:57:47;;;;;;;8.88;2.25;;;;;;;12.02;100.00;100908.16;5100374;28;20090;-84
2024/01/30 11:00:17;;;;;;;4.07;2.13;;;;;;;12.02;100.00;100908.16;5100297;28;20050;-84
2024/01/30 11:03:02;;;;;;;4.55;2.40;;;;;;;12.02;100.00;100902.97;5096162;28;20052;-84
2024/01/30 11:05:31;;;;;;;3.30;2.17;;;;;;;12.03;100.00;100909.91;5098612;28;20071;-84
2024/01/30 11:08:00;;;;;;;3.50;2.20;;;;;;;12.01;100.00;100909.88;5098496;28;20050;-84
2024/01/30 11:10:37;;;;;;;6.10;2.45;;;;;;;11.93;100.00;100907.09;5101743;28;20052;-84
2024/01/30 11:13:16;;;;;;;4.78;2.10;;;;;;;11.92;100.00;100913.09;5089854;28;20052;-84
2024/01/30 11:15:58;;;;;;;9.13;2.65;;;;;;;11.88;100.00;100916.44;5102356;28;20122;-85
2024/01/30 11:18:28;;;;;;;8.75;3.17;;;;;;;11.87;100.00;100917.28;5101117;28;20051;-85
2024/01/30 11:20:58;;;;;;;3.85;2.45;;;;;;;11.87;100.00;100918.97;5105180;28;20051;-85
2024/01/30 11:23:36;;;;;;;7.30;2.42;;;;;;;11.83;100.00;100915.41;5096987;28;20139;-84
2024/01/30 11:26:06;;;;;;;3.22;2.05;;;;;;;11.82;100.00;100915.34;5098394;28;20052;-85
2024/01/30 11:28:39;;;;;;;5.35;2.50;;;;;;;11.78;100.00;100909.22;5103885;28;20056;-84
2024/01/30 11:31:20;;;;;;;4.40;2.63;;;;;;;11.77;100.00;100919.56;5102737;28;20050;-84
2024/01/30 11:33:54;;;;;;;5.05;2.20;;;;;;;11.79;100.00;100916.16;5097251;28;20059;-84
2024/01/30 11:36:34;;;;;;;6.30;2.15;;;;;;;11.82;100.00;100915.34;5098143;28;20056;-85
2024/01/30 11:39:03;;;;;;;5.63;1.73;;;;;;;11.81;100.00;100901.53;5096937;28;20060;-85
2024/01/30 11:41:33;;;;;;;4.18;1.95;;;;;;;11.90;100.00;100901.81;5096904;28;20035;-84
2024/01/30 11:44:17;;;;;;;5.00;2.30;;;;;;;11.94;100.00;100895.88;5094952;28;20150;-84
2024/01/30 11:46:46;;;;;;;3.97;2.17;;;;;;;11.95;100.00;100871.69;5100681;28;20059;-84
2024/01/30 11:49:15;;;;;;;2.17;1.70;;;;;;;11.99;100.00;100875.25;5098890;28;20040;-85